sensor_id;sensor_type;location;lat;lon;timestamp;temperature;humidity
65072;DHT22;51663;52.310;17.016;2023-02-01T00:02:54;27.30;26.20
65072;DHT22;51663;52.310;17.016;2023-02-01T00:05:58;27.20;26.10
65072;DHT22;51663;52.310;17.016;2023-02-01T00:09:00;26.70;26.50
65072;DHT22;51663;52.310;17.016;2023-02-01T00:12:02;26.70;26.40
65072;DHT22;51663;52.310;17.016;2023-02-01T00:15:05;26.60;26.60
65072;DHT22;51663;52.310;17.016;2023-02-01T00:18:08;26.40;26.90
65072;DHT22;51663;52.310;17.016;2023-02-01T00:21:11;26.10;27.10
65072;DHT22;51663;52.310;17.016;2023-02-01T00:24:13;26.60;26.70
65072;DHT22;51663;52.310;17.016;2023-02-01T00:27:15;26.50;26.60
65072;DHT22;51663;52.310;17.016;2023-02-01T00:30:22;26.10;26.80
65072;DHT22;51663;52.310;17.016;2023-02-01T00:33:24;25.70;27.10
65072;DHT22;51663;52.310;17.016;2023-02-01T00:36:27;25.70;27.30
65072;DHT22;51663;52.310;17.016;2023-02-01T00:39:30;26.20;26.80
65072;DHT22;51663;52.310;17.016;2023-02-01T00:42:32;26.70;26.40
65072;DHT22;51663;52.310;17.016;2023-02-01T00:45:34;26.80;26.00
65072;DHT22;51663;52.310;17.016;2023-02-01T00:48:37;26.40;26.10
65072;DHT22;51663;52.310;17.016;2023-02-01T00:51:40;26.50;26.20
65072;DHT22;51663;52.310;17.016;2023-02-01T00:54:42;26.50;26.10
65072;DHT22;51663;52.310;17.016;2023-02-01T00:57:44;27.30;25.70
65072;DHT22;51663;52.310;17.016;2023-02-01T01:00:46;26.70;25.80
65072;DHT22;51663;52.310;17.016;2023-02-01T01:03:55;27.00;25.80
65072;DHT22;51663;52.310;17.016;2023-02-01T01:06:57;26.20;26.40
65072;DHT22;51663;52.310;17.016;2023-02-01T01:09:59;26.00;26.70
65072;DHT22;51663;52.310;17.016;2023-02-01T01:13:02;26.30;26.40
65072;DHT22;51663;52.310;17.016;2023-02-01T01:16:06;26.60;26.10
65072;DHT22;51663;52.310;17.016;2023-02-01T01:19:08;26.50;26.20
65072;DHT22;51663;52.310;17.016;2023-02-01T01:22:10;26.50;26.20
65072;DHT22;51663;52.310;17.016;2023-02-01T01:25:13;26.30;26.70
65072;DHT22;51663;52.310;17.016;2023-02-01T01:28:16;26.00;26.60
65072;DHT22;51663;52.310;17.016;2023-02-01T01:31:20;25.80;27.10
65072;DHT22;51663;52.310;17.016;2023-02-01T01:34:22;25.80;27.00
65072;DHT22;51663;52.310;17.016;2023-02-01T01:37:24;26.30;27.20
65072;DHT22;51663;52.310;17.016;2023-02-01T01:40:28;26.30;26.50
65072;DHT22;51663;52.310;17.016;2023-02-01T01:43:54;26.10;26.50
65072;DHT22;51663;52.310;17.016;2023-02-01T01:46:56;26.30;26.40
65072;DHT22;51663;52.310;17.016;2023-02-01T01:49:59;27.00;25.70
65072;DHT22;51663;52.310;17.016;2023-02-01T01:53:04;26.40;25.90
65072;DHT22;51663;52.310;17.016;2023-02-01T01:56:07;25.40;27.00
65072;DHT22;51663;52.310;17.016;2023-02-01T01:59:09;25.90;26.70
65072;DHT22;51663;52.310;17.016;2023-02-01T02:02:12;26.20;26.70
65072;DHT22;51663;52.310;17.016;2023-02-01T02:05:16;26.30;26.40
65072;DHT22;51663;52.310;17.016;2023-02-01T02:08:20;26.60;26.30
65072;DHT22;51663;52.310;17.016;2023-02-01T02:11:23;27.30;25.60
65072;DHT22;51663;52.310;17.016;2023-02-01T02:14:26;27.20;25.50
65072;DHT22;51663;52.310;17.016;2023-02-01T02:21:10;27.00;25.50
65072;DHT22;51663;52.310;17.016;2023-02-01T02:43:55;26.30;25.90
65072;DHT22;51663;52.310;17.016;2023-02-01T02:47:33;26.40;25.80
65072;DHT22;51663;52.310;17.016;2023-02-01T02:50:59;26.00;26.40
65072;DHT22;51663;52.310;17.016;2023-02-01T02:54:33;26.60;25.80
65072;DHT22;51663;52.310;17.016;2023-02-01T02:57:49;26.90;25.30
65072;DHT22;51663;52.310;17.016;2023-02-01T03:01:11;26.70;25.60
65072;DHT22;51663;52.310;17.016;2023-02-01T03:04:31;26.60;25.80
65072;DHT22;51663;52.310;17.016;2023-02-01T03:11:09;26.90;24.90
65072;DHT22;51663;52.310;17.016;2023-02-01T03:14:13;26.50;25.60
65072;DHT22;51663;52.310;17.016;2023-02-01T03:17:22;26.60;25.40
65072;DHT22;51663;52.310;17.016;2023-02-01T03:20:29;25.80;25.80
65072;DHT22;51663;52.310;17.016;2023-02-01T03:23:34;26.10;26.30
65072;DHT22;51663;52.310;17.016;2023-02-01T03:26:42;26.20;25.50
65072;DHT22;51663;52.310;17.016;2023-02-01T03:33:00;27.00;25.30
65072;DHT22;51663;52.310;17.016;2023-02-01T03:39:27;25.60;26.10
65072;DHT22;51663;52.310;17.016;2023-02-01T03:42:38;26.30;26.00
65072;DHT22;51663;52.310;17.016;2023-02-01T03:45:45;27.20;25.00
65072;DHT22;51663;52.310;17.016;2023-02-01T03:48:49;27.70;24.70
65072;DHT22;51663;52.310;17.016;2023-02-01T03:51:53;27.90;24.60
65072;DHT22;51663;52.310;17.016;2023-02-01T03:54:57;28.30;24.40
65072;DHT22;51663;52.310;17.016;2023-02-01T03:58:12;28.40;24.20
65072;DHT22;51663;52.310;17.016;2023-02-01T04:01:15;28.60;24.00
65072;DHT22;51663;52.310;17.016;2023-02-01T04:04:17;28.50;24.30
65072;DHT22;51663;52.310;17.016;2023-02-01T04:07:22;28.80;24.00
65072;DHT22;51663;52.310;17.016;2023-02-01T04:10:25;28.80;23.80
65072;DHT22;51663;52.310;17.016;2023-02-01T04:13:27;28.00;24.50
65072;DHT22;51663;52.310;17.016;2023-02-01T04:16:32;28.30;24.10
65072;DHT22;51663;52.310;17.016;2023-02-01T04:19:35;28.60;23.90
65072;DHT22;51663;52.310;17.016;2023-02-01T04:22:37;28.10;24.40
65072;DHT22;51663;52.310;17.016;2023-02-01T04:25:39;28.40;24.00
65072;DHT22;51663;52.310;17.016;2023-02-01T04:28:42;28.10;24.30
65072;DHT22;51663;52.310;17.016;2023-02-01T04:31:44;28.00;24.20
65072;DHT22;51663;52.310;17.016;2023-02-01T04:34:46;28.00;24.00
65072;DHT22;51663;52.310;17.016;2023-02-01T04:37:48;27.90;24.00
65072;DHT22;51663;52.310;17.016;2023-02-01T04:40:50;28.10;23.80
65072;DHT22;51663;52.310;17.016;2023-02-01T04:43:52;27.80;24.00
65072;DHT22;51663;52.310;17.016;2023-02-01T04:46:55;27.00;24.40
65072;DHT22;51663;52.310;17.016;2023-02-01T04:49:57;27.30;24.60
65072;DHT22;51663;52.310;17.016;2023-02-01T04:52:59;27.80;24.10
65072;DHT22;51663;52.310;17.016;2023-02-01T04:56:01;27.90;24.40
65072;DHT22;51663;52.310;17.016;2023-02-01T04:59:04;28.30;23.80
65072;DHT22;51663;52.310;17.016;2023-02-01T05:02:06;28.70;23.60
65072;DHT22;51663;52.310;17.016;2023-02-01T05:05:09;28.60;23.40
65072;DHT22;51663;52.310;17.016;2023-02-01T05:08:11;28.80;23.50
65072;DHT22;51663;52.310;17.016;2023-02-01T05:11:13;29.30;23.40
65072;DHT22;51663;52.310;17.016;2023-02-01T05:14:33;29.40;23.00
65072;DHT22;51663;52.310;17.016;2023-02-01T05:17:36;29.40;22.90
65072;DHT22;51663;52.310;17.016;2023-02-01T05:20:38;29.00;23.30
65072;DHT22;51663;52.310;17.016;2023-02-01T05:23:40;29.30;23.20
65072;DHT22;51663;52.310;17.016;2023-02-01T05:27:05;28.30;23.90
65072;DHT22;51663;52.310;17.016;2023-02-01T05:30:08;29.00;23.50
65072;DHT22;51663;52.310;17.016;2023-02-01T05:33:11;29.10;23.30
65072;DHT22;51663;52.310;17.016;2023-02-01T05:36:13;29.10;23.30
65072;DHT22;51663;52.310;17.016;2023-02-01T05:39:15;29.30;23.30
65072;DHT22;51663;52.310;17.016;2023-02-01T05:42:17;29.40;23.10
65072;DHT22;51663;52.310;17.016;2023-02-01T05:45:19;29.20;23.40
65072;DHT22;51663;52.310;17.016;2023-02-01T05:48:22;29.00;23.30
65072;DHT22;51663;52.310;17.016;2023-02-01T05:51:24;29.30;23.20
65072;DHT22;51663;52.310;17.016;2023-02-01T05:54:26;29.20;23.20
65072;DHT22;51663;52.310;17.016;2023-02-01T05:57:28;28.90;23.20
65072;DHT22;51663;52.310;17.016;2023-02-01T06:00:31;29.00;23.40
65072;DHT22;51663;52.310;17.016;2023-02-01T06:03:34;29.10;23.90
65072;DHT22;51663;52.310;17.016;2023-02-01T06:06:36;29.00;23.40
65072;DHT22;51663;52.310;17.016;2023-02-01T06:09:41;29.10;23.20
65072;DHT22;51663;52.310;17.016;2023-02-01T06:12:44;29.40;23.10
65072;DHT22;51663;52.310;17.016;2023-02-01T06:15:49;29.10;23.40
65072;DHT22;51663;52.310;17.016;2023-02-01T06:18:51;29.10;23.50
65072;DHT22;51663;52.310;17.016;2023-02-01T06:21:54;29.00;23.60
65072;DHT22;51663;52.310;17.016;2023-02-01T06:24:56;29.00;23.40
65072;DHT22;51663;52.310;17.016;2023-02-01T06:28:00;29.00;23.40
65072;DHT22;51663;52.310;17.016;2023-02-01T06:31:07;28.70;23.80
65072;DHT22;51663;52.310;17.016;2023-02-01T06:34:09;29.10;23.40
65072;DHT22;51663;52.310;17.016;2023-02-01T06:37:11;29.20;23.50
65072;DHT22;51663;52.310;17.016;2023-02-01T06:40:14;29.20;23.30
65072;DHT22;51663;52.310;17.016;2023-02-01T06:43:16;29.30;23.30
65072;DHT22;51663;52.310;17.016;2023-02-01T06:46:18;29.10;23.10
65072;DHT22;51663;52.310;17.016;2023-02-01T06:49:21;29.10;23.50
65072;DHT22;51663;52.310;17.016;2023-02-01T06:52:23;29.00;23.40
65072;DHT22;51663;52.310;17.016;2023-02-01T06:55:25;28.60;23.50
65072;DHT22;51663;52.310;17.016;2023-02-01T06:58:32;28.80;23.70
65072;DHT22;51663;52.310;17.016;2023-02-01T07:01:34;28.80;23.60
65072;DHT22;51663;52.310;17.016;2023-02-01T07:04:37;28.80;23.70
65072;DHT22;51663;52.310;17.016;2023-02-01T07:07:39;29.00;23.80
65072;DHT22;51663;52.310;17.016;2023-02-01T07:10:41;29.10;23.80
65072;DHT22;51663;52.310;17.016;2023-02-01T07:13:44;29.20;23.70
65072;DHT22;51663;52.310;17.016;2023-02-01T07:16:46;28.90;23.80
65072;DHT22;51663;52.310;17.016;2023-02-01T07:19:48;29.10;23.90
65072;DHT22;51663;52.310;17.016;2023-02-01T07:22:55;29.10;24.00
65072;DHT22;51663;52.310;17.016;2023-02-01T07:26:01;29.20;24.30
65072;DHT22;51663;52.310;17.016;2023-02-01T07:29:03;28.80;24.20
65072;DHT22;51663;52.310;17.016;2023-02-01T07:32:06;28.60;24.70
65072;DHT22;51663;52.310;17.016;2023-02-01T07:35:08;28.60;24.90
65072;DHT22;51663;52.310;17.016;2023-02-01T07:38:10;28.80;24.80
65072;DHT22;51663;52.310;17.016;2023-02-01T07:41:12;28.40;25.00
65072;DHT22;51663;52.310;17.016;2023-02-01T07:44:15;28.30;25.00
65072;DHT22;51663;52.310;17.016;2023-02-01T07:47:17;27.90;25.60
65072;DHT22;51663;52.310;17.016;2023-02-01T07:50:19;27.70;25.20
65072;DHT22;51663;52.310;17.016;2023-02-01T07:53:22;27.80;25.40
65072;DHT22;51663;52.310;17.016;2023-02-01T07:56:24;27.80;25.40
65072;DHT22;51663;52.310;17.016;2023-02-01T07:59:27;28.40;25.10
65072;DHT22;51663;52.310;17.016;2023-02-01T08:02:29;28.40;24.80
65072;DHT22;51663;52.310;17.016;2023-02-01T08:05:31;28.50;25.00
65072;DHT22;51663;52.310;17.016;2023-02-01T08:08:34;28.50;24.80
65072;DHT22;51663;52.310;17.016;2023-02-01T08:11:36;28.70;24.60
65072;DHT22;51663;52.310;17.016;2023-02-01T08:14:39;28.30;24.80
65072;DHT22;51663;52.310;17.016;2023-02-01T08:17:50;28.80;24.70
65072;DHT22;51663;52.310;17.016;2023-02-01T08:20:52;28.20;25.00
65072;DHT22;51663;52.310;17.016;2023-02-01T08:23:54;28.20;25.30
65072;DHT22;51663;52.310;17.016;2023-02-01T08:26:58;28.10;24.70
65072;DHT22;51663;52.310;17.016;2023-02-01T08:30:02;28.30;24.70
65072;DHT22;51663;52.310;17.016;2023-02-01T08:33:08;28.70;24.50
65072;DHT22;51663;52.310;17.016;2023-02-01T08:36:11;28.60;24.50
65072;DHT22;51663;52.310;17.016;2023-02-01T08:39:13;28.30;24.60
65072;DHT22;51663;52.310;17.016;2023-02-01T08:42:16;28.60;24.60
65072;DHT22;51663;52.310;17.016;2023-02-01T08:45:37;28.70;24.70
65072;DHT22;51663;52.310;17.016;2023-02-01T08:48:40;28.60;24.30
65072;DHT22;51663;52.310;17.016;2023-02-01T08:51:42;29.20;24.40
65072;DHT22;51663;52.310;17.016;2023-02-01T08:54:44;28.80;24.50
65072;DHT22;51663;52.310;17.016;2023-02-01T08:57:47;29.40;24.10
65072;DHT22;51663;52.310;17.016;2023-02-01T09:00:50;29.40;24.00
65072;DHT22;51663;52.310;17.016;2023-02-01T09:03:56;29.40;24.10
65072;DHT22;51663;52.310;17.016;2023-02-01T09:06:58;29.40;24.00
65072;DHT22;51663;52.310;17.016;2023-02-01T09:10:01;29.00;24.40
65072;DHT22;51663;52.310;17.016;2023-02-01T09:13:03;28.90;24.30
65072;DHT22;51663;52.310;17.016;2023-02-01T09:16:06;29.00;24.40
65072;DHT22;51663;52.310;17.016;2023-02-01T09:19:09;28.70;24.60
65072;DHT22;51663;52.310;17.016;2023-02-01T09:22:28;28.70;24.70
65072;DHT22;51663;52.310;17.016;2023-02-01T09:25:30;28.80;25.10
65072;DHT22;51663;52.310;17.016;2023-02-01T09:28:33;29.00;24.80
65072;DHT22;51663;52.310;17.016;2023-02-01T09:31:35;28.70;25.10
65072;DHT22;51663;52.310;17.016;2023-02-01T09:34:37;28.30;25.10
65072;DHT22;51663;52.310;17.016;2023-02-01T09:37:40;28.40;25.50
65072;DHT22;51663;52.310;17.016;2023-02-01T09:40:46;28.40;25.10
65072;DHT22;51663;52.310;17.016;2023-02-01T09:46:59;28.90;25.20
65072;DHT22;51663;52.310;17.016;2023-02-01T09:50:21;28.50;25.70
65072;DHT22;51663;52.310;17.016;2023-02-01T09:53:29;28.70;25.60
65072;DHT22;51663;52.310;17.016;2023-02-01T09:56:41;29.00;25.30
65072;DHT22;51663;52.310;17.016;2023-02-01T09:59:47;28.90;25.50
65072;DHT22;51663;52.310;17.016;2023-02-01T10:02:51;29.20;25.50
65072;DHT22;51663;52.310;17.016;2023-02-01T10:12:42;28.90;25.60
65072;DHT22;51663;52.310;17.016;2023-02-01T10:16:12;28.90;25.80
65072;DHT22;51663;52.310;17.016;2023-02-01T10:22:45;29.10;25.70
65072;DHT22;51663;52.310;17.016;2023-02-01T10:26:20;28.80;26.00
65072;DHT22;51663;52.310;17.016;2023-02-01T10:29:24;29.60;25.70
65072;DHT22;51663;52.310;17.016;2023-02-01T10:32:33;29.50;25.40
65072;DHT22;51663;52.310;17.016;2023-02-01T10:35:36;29.60;25.30
65072;DHT22;51663;52.310;17.016;2023-02-01T10:38:40;29.50;25.50
65072;DHT22;51663;52.310;17.016;2023-02-01T10:41:42;29.70;25.30
65072;DHT22;51663;52.310;17.016;2023-02-01T10:44:45;29.40;25.70
65072;DHT22;51663;52.310;17.016;2023-02-01T10:47:51;29.20;25.80
65072;DHT22;51663;52.310;17.016;2023-02-01T10:51:16;29.10;25.60
65072;DHT22;51663;52.310;17.016;2023-02-01T10:54:32;29.40;25.60
65072;DHT22;51663;52.310;17.016;2023-02-01T10:57:35;29.50;25.30
65072;DHT22;51663;52.310;17.016;2023-02-01T11:04:16;29.30;25.70
65072;DHT22;51663;52.310;17.016;2023-02-01T11:07:23;28.20;26.60
65072;DHT22;51663;52.310;17.016;2023-02-01T11:10:40;28.60;26.40
65072;DHT22;51663;52.310;17.016;2023-02-01T11:13:43;29.10;25.90
65072;DHT22;51663;52.310;17.016;2023-02-01T11:16:54;29.10;25.70
65072;DHT22;51663;52.310;17.016;2023-02-01T11:19:59;29.00;25.90
65072;DHT22;51663;52.310;17.016;2023-02-01T11:23:02;29.00;25.90
65072;DHT22;51663;52.310;17.016;2023-02-01T11:26:30;29.00;26.00
65072;DHT22;51663;52.310;17.016;2023-02-01T11:29:41;28.80;26.00
65072;DHT22;51663;52.310;17.016;2023-02-01T11:32:48;28.80;26.30
65072;DHT22;51663;52.310;17.016;2023-02-01T11:35:52;28.60;26.50
65072;DHT22;51663;52.310;17.016;2023-02-01T11:42:19;29.00;26.30
65072;DHT22;51663;52.310;17.016;2023-02-01T11:45:29;28.50;26.30
65072;DHT22;51663;52.310;17.016;2023-02-01T11:48:32;28.60;26.60
65072;DHT22;51663;52.310;17.016;2023-02-01T11:51:52;29.00;26.30
65072;DHT22;51663;52.310;17.016;2023-02-01T12:01:41;28.60;26.50
65072;DHT22;51663;52.310;17.016;2023-02-01T12:15:14;28.70;26.20
65072;DHT22;51663;52.310;17.016;2023-02-01T12:21:48;27.50;27.40
65072;DHT22;51663;52.310;17.016;2023-02-01T12:47:46;27.70;27.20
65072;DHT22;51663;52.310;17.016;2023-02-01T12:50:57;27.80;26.90
65072;DHT22;51663;52.310;17.016;2023-02-01T12:54:22;27.70;27.10
65072;DHT22;51663;52.310;17.016;2023-02-01T12:57:33;27.70;27.20
65072;DHT22;51663;52.310;17.016;2023-02-01T13:00:44;27.60;27.20
65072;DHT22;51663;52.310;17.016;2023-02-01T13:04:20;27.80;26.90
65072;DHT22;51663;52.310;17.016;2023-02-01T13:07:36;27.60;27.00
65072;DHT22;51663;52.310;17.016;2023-02-01T13:10:45;28.30;26.20
65072;DHT22;51663;52.310;17.016;2023-02-01T13:17:16;27.40;26.70
65072;DHT22;51663;52.310;17.016;2023-02-01T13:20:37;27.30;27.20
65072;DHT22;51663;52.310;17.016;2023-02-01T13:23:46;27.70;26.60
65072;DHT22;51663;52.310;17.016;2023-02-01T13:26:49;28.40;26.30
65072;DHT22;51663;52.310;17.016;2023-02-01T13:30:20;28.70;25.80
65072;DHT22;51663;52.310;17.016;2023-02-01T13:43:31;28.60;25.50
65072;DHT22;51663;52.310;17.016;2023-02-01T13:46:46;28.50;25.40
65072;DHT22;51663;52.310;17.016;2023-02-01T13:49:48;28.60;25.40
65072;DHT22;51663;52.310;17.016;2023-02-01T13:53:02;27.60;25.90
65072;DHT22;51663;52.310;17.016;2023-02-01T13:56:20;27.40;26.50
65072;DHT22;51663;52.310;17.016;2023-02-01T14:12:47;27.90;25.60
65072;DHT22;51663;52.310;17.016;2023-02-01T14:19:08;27.80;25.50
65072;DHT22;51663;52.310;17.016;2023-02-01T14:25:22;27.80;25.90
65072;DHT22;51663;52.310;17.016;2023-02-01T14:28:28;28.00;25.60
65072;DHT22;51663;52.310;17.016;2023-02-01T14:34:49;28.50;25.30
65072;DHT22;51663;52.310;17.016;2023-02-01T14:38:00;27.90;25.50
65072;DHT22;51663;52.310;17.016;2023-02-01T14:44:33;28.70;24.90
65072;DHT22;51663;52.310;17.016;2023-02-01T14:47:36;28.70;24.80
65072;DHT22;51663;52.310;17.016;2023-02-01T14:50:44;29.00;24.60
65072;DHT22;51663;52.310;17.016;2023-02-01T14:53:49;29.00;24.60
65072;DHT22;51663;52.310;17.016;2023-02-01T14:56:54;29.40;24.40
65072;DHT22;51663;52.310;17.016;2023-02-01T15:00:27;29.60;24.20
65072;DHT22;51663;52.310;17.016;2023-02-01T15:03:48;29.60;24.60
65072;DHT22;51663;52.310;17.016;2023-02-01T15:06:57;29.10;24.30
65072;DHT22;51663;52.310;17.016;2023-02-01T15:10:02;28.80;24.60
65072;DHT22;51663;52.310;17.016;2023-02-01T15:13:05;28.70;24.60
65072;DHT22;51663;52.310;17.016;2023-02-01T15:16:13;29.00;24.60
65072;DHT22;51663;52.310;17.016;2023-02-01T15:19:15;29.30;24.30
65072;DHT22;51663;52.310;17.016;2023-02-01T15:22:19;29.50;24.00
65072;DHT22;51663;52.310;17.016;2023-02-01T15:25:27;29.40;24.10
65072;DHT22;51663;52.310;17.016;2023-02-01T15:28:30;29.20;24.40
65072;DHT22;51663;52.310;17.016;2023-02-01T15:31:38;29.50;24.30
65072;DHT22;51663;52.310;17.016;2023-02-01T15:34:49;29.30;24.50
65072;DHT22;51663;52.310;17.016;2023-02-01T15:41:30;29.80;24.30
65072;DHT22;51663;52.310;17.016;2023-02-01T15:44:38;30.00;23.90
65072;DHT22;51663;52.310;17.016;2023-02-01T15:47:47;29.60;23.80
65072;DHT22;51663;52.310;17.016;2023-02-01T15:50:50;28.90;24.30
65072;DHT22;51663;52.310;17.016;2023-02-01T15:53:53;29.10;24.60
65072;DHT22;51663;52.310;17.016;2023-02-01T15:56:58;29.20;24.40
65072;DHT22;51663;52.310;17.016;2023-02-01T16:00:06;29.40;24.50
65072;DHT22;51663;52.310;17.016;2023-02-01T16:06:52;29.30;24.60
65072;DHT22;51663;52.310;17.016;2023-02-01T16:09:57;29.10;24.50
65072;DHT22;51663;52.310;17.016;2023-02-01T16:13:00;29.10;24.50
65072;DHT22;51663;52.310;17.016;2023-02-01T16:16:02;29.00;24.40
65072;DHT22;51663;52.310;17.016;2023-02-01T16:19:10;28.80;24.80
65072;DHT22;51663;52.310;17.016;2023-02-01T16:22:12;29.10;24.60
65072;DHT22;51663;52.310;17.016;2023-02-01T16:25:14;29.10;24.40
65072;DHT22;51663;52.310;17.016;2023-02-01T16:28:16;28.90;24.70
65072;DHT22;51663;52.310;17.016;2023-02-01T16:31:21;28.50;24.70
65072;DHT22;51663;52.310;17.016;2023-02-01T16:34:28;28.70;24.70
65072;DHT22;51663;52.310;17.016;2023-02-01T16:37:34;28.30;25.00
65072;DHT22;51663;52.310;17.016;2023-02-01T16:40:39;28.50;24.60
65072;DHT22;51663;52.310;17.016;2023-02-01T16:43:41;28.80;24.70
65072;DHT22;51663;52.310;17.016;2023-02-01T16:46:45;28.30;25.00
65072;DHT22;51663;52.310;17.016;2023-02-01T16:49:49;28.70;24.90
65072;DHT22;51663;52.310;17.016;2023-02-01T16:52:52;28.30;24.60
65072;DHT22;51663;52.310;17.016;2023-02-01T16:55:57;27.60;25.20
65072;DHT22;51663;52.310;17.016;2023-02-01T16:59:02;27.70;25.60
65072;DHT22;51663;52.310;17.016;2023-02-01T17:02:06;28.40;25.10
65072;DHT22;51663;52.310;17.016;2023-02-01T17:05:09;28.40;24.60
65072;DHT22;51663;52.310;17.016;2023-02-01T17:08:15;28.20;25.00
65072;DHT22;51663;52.310;17.016;2023-02-01T17:11:20;28.50;24.90
65072;DHT22;51663;52.310;17.016;2023-02-01T17:14:23;27.70;24.80
65072;DHT22;51663;52.310;17.016;2023-02-01T17:17:38;28.20;24.90
65072;DHT22;51663;52.310;17.016;2023-02-01T17:20:44;28.20;24.80
65072;DHT22;51663;52.310;17.016;2023-02-01T17:23:59;28.70;24.50
65072;DHT22;51663;52.310;17.016;2023-02-01T17:27:07;28.90;24.40
65072;DHT22;51663;52.310;17.016;2023-02-01T17:30:10;28.50;24.60
65072;DHT22;51663;52.310;17.016;2023-02-01T17:33:34;28.60;25.00
65072;DHT22;51663;52.310;17.016;2023-02-01T17:36:37;29.00;24.90
65072;DHT22;51663;52.310;17.016;2023-02-01T17:39:41;28.90;24.80
65072;DHT22;51663;52.310;17.016;2023-02-01T17:42:58;29.00;25.00
65072;DHT22;51663;52.310;17.016;2023-02-01T17:46:14;29.10;24.90
65072;DHT22;51663;52.310;17.016;2023-02-01T17:49:17;29.40;24.80
65072;DHT22;51663;52.310;17.016;2023-02-01T17:52:20;29.50;24.80
65072;DHT22;51663;52.310;17.016;2023-02-01T17:55:24;29.40;24.70
65072;DHT22;51663;52.310;17.016;2023-02-01T17:58:27;29.40;24.70
65072;DHT22;51663;52.310;17.016;2023-02-01T18:01:34;29.70;24.70
65072;DHT22;51663;52.310;17.016;2023-02-01T18:04:36;29.70;24.60
65072;DHT22;51663;52.310;17.016;2023-02-01T18:07:39;29.80;24.60
65072;DHT22;51663;52.310;17.016;2023-02-01T18:10:41;29.90;24.60
65072;DHT22;51663;52.310;17.016;2023-02-01T18:13:44;29.80;24.40
65072;DHT22;51663;52.310;17.016;2023-02-01T18:16:46;30.00;24.40
65072;DHT22;51663;52.310;17.016;2023-02-01T18:19:49;29.90;24.60
65072;DHT22;51663;52.310;17.016;2023-02-01T18:22:51;30.00;24.70
65072;DHT22;51663;52.310;17.016;2023-02-01T18:25:54;29.80;24.40
65072;DHT22;51663;52.310;17.016;2023-02-01T18:28:58;30.10;24.50
65072;DHT22;51663;52.310;17.016;2023-02-01T18:32:01;30.00;24.60
65072;DHT22;51663;52.310;17.016;2023-02-01T18:35:24;29.90;24.60
65072;DHT22;51663;52.310;17.016;2023-02-01T18:38:27;29.70;24.70
65072;DHT22;51663;52.310;17.016;2023-02-01T18:41:30;29.70;24.60
65072;DHT22;51663;52.310;17.016;2023-02-01T18:44:32;29.60;24.50
65072;DHT22;51663;52.310;17.016;2023-02-01T18:47:34;29.60;24.70
65072;DHT22;51663;52.310;17.016;2023-02-01T18:50:43;29.70;24.80
65072;DHT22;51663;52.310;17.016;2023-02-01T18:53:46;29.60;24.80
65072;DHT22;51663;52.310;17.016;2023-02-01T18:56:48;29.80;24.70
65072;DHT22;51663;52.310;17.016;2023-02-01T18:59:51;29.90;24.80
65072;DHT22;51663;52.310;17.016;2023-02-01T19:02:54;29.30;24.80
65072;DHT22;51663;52.310;17.016;2023-02-01T19:05:56;29.30;25.30
65072;DHT22;51663;52.310;17.016;2023-02-01T19:08:59;29.10;25.40
65072;DHT22;51663;52.310;17.016;2023-02-01T19:12:01;28.80;25.90
65072;DHT22;51663;52.310;17.016;2023-02-01T19:15:06;29.00;25.60
65072;DHT22;51663;52.310;17.016;2023-02-01T19:18:09;28.90;25.50
65072;DHT22;51663;52.310;17.016;2023-02-01T19:21:12;28.90;25.50
65072;DHT22;51663;52.310;17.016;2023-02-01T19:24:15;29.20;25.20
65072;DHT22;51663;52.310;17.016;2023-02-01T19:27:18;29.20;25.10
65072;DHT22;51663;52.310;17.016;2023-02-01T19:30:21;28.50;25.50
65072;DHT22;51663;52.310;17.016;2023-02-01T19:33:26;28.80;25.50
65072;DHT22;51663;52.310;17.016;2023-02-01T19:36:29;27.60;26.20
65072;DHT22;51663;52.310;17.016;2023-02-01T19:39:31;28.10;26.10
65072;DHT22;51663;52.310;17.016;2023-02-01T19:42:34;28.50;26.00
65072;DHT22;51663;52.310;17.016;2023-02-01T19:45:36;28.90;25.40
65072;DHT22;51663;52.310;17.016;2023-02-01T19:48:41;29.00;25.20
65072;DHT22;51663;52.310;17.016;2023-02-01T19:51:43;28.30;25.30
65072;DHT22;51663;52.310;17.016;2023-02-01T19:54:46;28.80;25.60
65072;DHT22;51663;52.310;17.016;2023-02-01T19:57:48;28.80;25.30
65072;DHT22;51663;52.310;17.016;2023-02-01T20:00:56;29.00;25.20
65072;DHT22;51663;52.310;17.016;2023-02-01T20:04:11;29.20;25.10
65072;DHT22;51663;52.310;17.016;2023-02-01T20:07:14;29.00;25.30
65072;DHT22;51663;52.310;17.016;2023-02-01T20:10:17;29.00;25.20
65072;DHT22;51663;52.310;17.016;2023-02-01T20:13:20;28.50;25.60
65072;DHT22;51663;52.310;17.016;2023-02-01T20:16:23;28.10;26.20
65072;DHT22;51663;52.310;17.016;2023-02-01T20:19:27;28.30;25.90
65072;DHT22;51663;52.310;17.016;2023-02-01T20:22:33;28.20;25.90
65072;DHT22;51663;52.310;17.016;2023-02-01T20:25:37;27.90;26.20
65072;DHT22;51663;52.310;17.016;2023-02-01T20:28:39;28.10;25.80
65072;DHT22;51663;52.310;17.016;2023-02-01T20:31:42;27.90;26.30
65072;DHT22;51663;52.310;17.016;2023-02-01T20:34:46;28.20;25.90
65072;DHT22;51663;52.310;17.016;2023-02-01T20:37:52;28.10;25.90
65072;DHT22;51663;52.310;17.016;2023-02-01T20:41:03;28.40;25.60
65072;DHT22;51663;52.310;17.016;2023-02-01T20:44:10;28.50;25.60
65072;DHT22;51663;52.310;17.016;2023-02-01T20:47:20;28.80;25.40
65072;DHT22;51663;52.310;17.016;2023-02-01T20:50:29;28.70;25.30
65072;DHT22;51663;52.310;17.016;2023-02-01T20:53:32;28.70;25.30
65072;DHT22;51663;52.310;17.016;2023-02-01T20:56:35;28.40;25.50
65072;DHT22;51663;52.310;17.016;2023-02-01T20:59:39;28.40;25.80
65072;DHT22;51663;52.310;17.016;2023-02-01T21:02:41;28.60;25.60
65072;DHT22;51663;52.310;17.016;2023-02-01T21:05:52;28.70;25.40
65072;DHT22;51663;52.310;17.016;2023-02-01T21:08:54;28.80;25.50
65072;DHT22;51663;52.310;17.016;2023-02-01T21:11:56;28.90;25.30
65072;DHT22;51663;52.310;17.016;2023-02-01T21:14:59;28.70;25.40
65072;DHT22;51663;52.310;17.016;2023-02-01T21:18:05;28.90;25.20
65072;DHT22;51663;52.310;17.016;2023-02-01T21:21:10;29.00;25.30
65072;DHT22;51663;52.310;17.016;2023-02-01T21:24:12;29.20;25.10
65072;DHT22;51663;52.310;17.016;2023-02-01T21:27:15;28.70;25.20
65072;DHT22;51663;52.310;17.016;2023-02-01T21:30:17;28.60;25.50
65072;DHT22;51663;52.310;17.016;2023-02-01T21:33:20;28.20;25.60
65072;DHT22;51663;52.310;17.016;2023-02-01T21:36:22;28.50;25.80
65072;DHT22;51663;52.310;17.016;2023-02-01T21:39:24;28.50;25.50